createdAt,value
2023-03-11T00:00:16.190Z,80.71
2023-03-11T00:02:17.730Z,80.98
2023-03-11T00:04:19.424Z,81.24
2023-03-11T00:06:20.974Z,81.45
2023-03-11T00:08:22.353Z,80.54
2023-03-11T00:10:24.346Z,81.09
2023-03-11T00:12:26.302Z,80.78
2023-03-11T00:14:27.499Z,82
2023-03-11T00:18:29.883Z,83.99
2023-03-11T00:20:31.799Z,84.32
2023-03-11T00:22:33.444Z,85.84
2023-03-11T00:24:35.235Z,86.77
2023-03-11T00:26:36.332Z,86.67
2023-03-11T00:28:38.061Z,86.84
2023-03-11T00:30:39.356Z,86.93
2023-03-11T00:32:40.604Z,86.53
2023-03-11T00:34:41.677Z,86.3
2023-03-11T00:36:42.744Z,86.34
2023-03-11T00:38:43.896Z,86.18
2023-03-11T00:40:45.610Z,86.01
2023-03-11T00:42:46.953Z,86.25
2023-03-11T00:44:48.646Z,86.01
2023-03-11T00:46:49.769Z,85.8
2023-03-11T00:48:51.480Z,86.22
2023-03-11T00:50:52.800Z,86.71
2023-03-11T00:52:54.371Z,86.71
2023-03-11T00:54:55.999Z,86.83
2023-03-11T00:56:57.440Z,86.57
2023-03-11T01:01:00.867Z,85.55
2023-03-11T01:03:01.972Z,85.78
2023-03-11T01:05:03.531Z,84.86
2023-03-11T01:07:04.650Z,83.63
2023-03-11T01:09:06.270Z,82.59
2023-03-11T01:11:07.977Z,80.3
2023-03-11T01:13:09.546Z,79.82
2023-03-11T01:15:11.341Z,78.43
2023-03-11T01:17:13.271Z,77.8
2023-03-11T01:19:14.901Z,76.44
2023-03-11T01:21:16.154Z,74.68
2023-03-11T01:23:18.012Z,76.01
2023-03-11T01:25:19.068Z,75.47
2023-03-11T01:27:20.526Z,74.64
2023-03-11T01:29:21.755Z,74.55
2023-03-11T01:33:24.792Z,74.77
2023-03-11T01:35:25.893Z,75.08
2023-03-11T01:37:27.533Z,74.98
2023-03-11T01:39:29.328Z,75.27
2023-03-11T01:43:32.621Z,76.26
2023-03-11T01:45:33.637Z,76.41
2023-03-11T01:47:35.291Z,76.22
2023-03-11T01:49:36.928Z,76.46
2023-03-11T01:51:38.200Z,75.77
2023-03-11T01:53:39.680Z,76.29
2023-03-11T01:55:41.444Z,74.98
2023-03-11T01:57:42.615Z,75.33
2023-03-11T01:59:43.704Z,75.6
2023-03-11T02:01:44.819Z,74.63
2023-03-11T02:03:46.671Z,73.9
2023-03-11T02:05:48.273Z,73.76
2023-03-11T02:07:50.058Z,73.72
2023-03-11T02:09:51.245Z,74.16
2023-03-11T02:11:52.635Z,74
2023-03-11T02:13:54.083Z,74.27
2023-03-11T02:15:55.715Z,75.08
2023-03-11T02:17:57.409Z,74.53
2023-03-11T02:19:59.069Z,74.87
2023-03-11T02:22:00.759Z,74.95
2023-03-11T02:26:03.790Z,74.71
2023-03-11T02:28:05.053Z,75.14
2023-03-11T02:30:07.072Z,75.06
2023-03-11T02:32:08.648Z,74.82
2023-03-11T02:34:10.472Z,74.86
2023-03-11T02:36:12.423Z,74.67
2023-03-11T02:38:14.160Z,74.1
2023-03-11T02:40:15.676Z,74.53
2023-03-11T02:42:16.773Z,74.43
2023-03-11T02:48:21.062Z,74.49
2023-03-11T02:50:22.151Z,74.48
2023-03-11T02:52:33.175Z,75.28
2023-03-11T02:54:25.063Z,74.54
2023-03-11T02:58:27.974Z,75.64
2023-03-11T03:00:29.909Z,74.82
2023-03-11T03:02:31.162Z,74.43
2023-03-11T03:04:33.207Z,75.04
2023-03-11T03:06:34.810Z,74.7
2023-03-11T03:08:36.407Z,75.38
2023-03-11T03:10:37.704Z,75.82
2023-03-11T03:12:39.628Z,75.01
2023-03-11T03:14:40.810Z,75.15
2023-03-11T03:16:41.945Z,75.23
2023-03-11T03:18:43.046Z,75.4
2023-03-11T03:20:44.146Z,75.68
2023-03-11T03:22:45.968Z,76.18
2023-03-11T03:24:47.322Z,75.77
2023-03-11T03:26:49.053Z,75.56
2023-03-11T03:29:34.067Z,76.26
2023-03-11T03:31:35.155Z,75.98
2023-03-11T03:33:37.050Z,75.89
2023-03-11T03:35:39.109Z,75.9
2023-03-11T03:37:40.728Z,75.94
2023-03-11T03:41:44.129Z,76.79
2023-03-11T03:43:46.162Z,76.22
2023-03-11T03:45:47.934Z,76.64
2023-03-11T03:47:49.401Z,75.87
2023-03-11T03:51:52.527Z,76.04
2023-03-11T03:53:53.733Z,76.22
2023-03-11T03:55:55.491Z,76.16
2023-03-11T03:57:57.227Z,76.05
2023-03-11T03:59:58.984Z,75.99
2023-03-11T04:02:00.691Z,76.73
2023-03-11T04:04:01.743Z,76.89
2023-03-11T04:06:03.220Z,77.35
2023-03-11T04:08:04.478Z,76.83
2023-03-11T04:10:06.046Z,76.29
2023-03-11T04:12:07.171Z,76.5
2023-03-11T04:14:09.104Z,76.5
2023-03-11T04:16:11.118Z,77.02
2023-03-11T04:18:12.959Z,77.31
2023-03-11T04:20:14.104Z,77.4
2023-03-11T04:24:17.422Z,78.15
2023-03-11T04:26:18.934Z,77.77
2023-03-11T04:28:20.790Z,78.08
2023-03-11T04:30:21.909Z,77.9
2023-03-11T04:34:25.702Z,77.51
2023-03-11T04:36:27.331Z,77.8
2023-03-11T04:38:28.684Z,78.06
2023-03-11T04:40:30.125Z,77.96
2023-03-11T04:42:31.445Z,78.32
2023-03-11T04:44:33.087Z,77.73
2023-03-11T04:46:34.352Z,78.12
2023-03-11T04:48:35.370Z,78.71
2023-03-11T04:50:36.582Z,78.23
2023-03-11T04:52:37.821Z,78.41
2023-03-11T04:54:39.631Z,78.66
2023-03-11T04:56:41.129Z,78.24
2023-03-11T04:58:42.317Z,77.89
2023-03-11T05:00:44.067Z,78.07
2023-03-11T05:02:45.816Z,78.13
2023-03-11T05:04:47.178Z,78.21
2023-03-11T05:06:49.064Z,78.46
2023-03-11T05:08:50.131Z,78.53
2023-03-11T05:10:51.317Z,78.33
2023-03-11T05:12:53.217Z,78.16
2023-03-11T05:16:56.415Z,78.33
2023-03-11T05:18:57.710Z,78.41
2023-03-11T05:20:59.491Z,78.37
2023-03-11T05:23:00.556Z,78.46
2023-03-11T05:25:01.994Z,78.46
2023-03-11T05:27:03.803Z,78.2
2023-03-11T05:29:05.504Z,78.44
2023-03-11T05:31:07.115Z,77.87
2023-03-11T05:33:08.972Z,78.23
2023-03-11T05:35:10.795Z,77.8
2023-03-11T05:37:12.524Z,78.17
2023-03-11T05:39:13.724Z,78.66
2023-03-11T05:41:15.005Z,78.4
2023-03-11T05:43:25.515Z,78.01
2023-03-11T05:45:18.254Z,78.11
2023-03-11T05:47:19.926Z,78.21
2023-03-11T05:49:21.935Z,78.6
2023-03-11T05:51:23.446Z,78.65
2023-03-11T05:53:25.006Z,78.56
2023-03-11T05:55:26.555Z,79.34
2023-03-11T05:59:29.578Z,79.15
2023-03-11T06:01:31.326Z,78.79
2023-03-11T06:03:32.959Z,79.02
2023-03-11T06:05:34.736Z,78.6
2023-03-11T06:07:35.916Z,78.73
2023-03-11T06:09:37.872Z,79.17
2023-03-11T06:11:39.129Z,79.51
2023-03-11T06:13:40.375Z,79.44
2023-03-11T06:15:41.777Z,79.36
2023-03-11T06:17:43.362Z,79.71
2023-03-11T06:19:45.362Z,79.86
2023-03-11T06:21:46.539Z,79.61
2023-03-11T06:23:48.287Z,80.02
2023-03-11T06:25:49.494Z,79.98
2023-03-11T06:27:50.991Z,79.95
2023-03-11T06:29:52.869Z,80.18
2023-03-11T06:31:54.324Z,80.3
2023-03-11T06:33:55.824Z,80.19
2023-03-11T06:35:56.968Z,80.21
2023-03-11T06:37:58.677Z,80.54
2023-03-11T06:42:01.274Z,80.43
2023-03-11T06:44:03.076Z,80.34
2023-03-11T06:46:04.424Z,80.46
2023-03-11T06:48:06.064Z,80.34
2023-03-11T06:50:07.611Z,80.16
2023-03-11T06:52:09.064Z,80.22
2023-03-11T06:54:10.815Z,80.54
2023-03-11T06:56:12.015Z,80.08
2023-03-11T06:58:13.272Z,79.91
2023-03-11T07:00:14.554Z,79.93
2023-03-11T07:02:16.062Z,79.83
2023-03-11T07:04:17.356Z,80
2023-03-11T07:06:19.068Z,80.02
2023-03-11T07:08:20.248Z,79.85
2023-03-11T07:10:21.767Z,79.97
2023-03-11T07:12:23.499Z,79.57
2023-03-11T07:14:24.964Z,79.55
2023-03-11T07:16:26.410Z,79.71
2023-03-11T07:18:27.976Z,79.91
2023-03-11T07:20:29.094Z,79.31
2023-03-11T07:24:32.621Z,78.07
2023-03-11T07:26:33.747Z,77.61
2023-03-11T07:28:35.017Z,76.89
2023-03-11T07:30:36.315Z,76.96
2023-03-11T07:32:37.664Z,77.52
2023-03-11T07:34:38.698Z,77.07
2023-03-11T07:36:40.083Z,76.65
2023-03-11T07:38:41.876Z,77.3
2023-03-11T07:40:42.748Z,77.79
2023-03-11T07:42:44.652Z,77.61
2023-03-11T07:44:46.323Z,77.71
2023-03-11T07:46:48.162Z,77.67
2023-03-11T07:48:49.579Z,77.88
2023-03-11T07:50:50.689Z,77.41
2023-03-11T07:52:52.346Z,77.35
2023-03-11T07:54:53.964Z,77.94
2023-03-11T07:56:55.234Z,76.9
2023-03-11T07:58:57.179Z,76.89
2023-03-11T08:00:58.318Z,76.71
2023-03-11T08:02:59.968Z,76.87
2023-03-11T08:07:03.582Z,76.95
2023-03-11T08:09:05.346Z,76.61
2023-03-11T08:11:06.965Z,77.2
2023-03-11T08:13:08.660Z,75.69
2023-03-11T08:15:10.456Z,76.47
2023-03-11T08:17:12.157Z,75.75
2023-03-11T08:19:13.308Z,75.65
2023-03-11T08:21:14.916Z,74.73
2023-03-11T08:23:16.356Z,74.57
2023-03-11T08:25:18.228Z,74.18
2023-03-11T08:27:19.962Z,74.08
2023-03-11T08:29:21.936Z,74.54
2023-03-11T08:31:23.577Z,74.57
2023-03-11T08:33:24.676Z,75.63
2023-03-11T08:35:26.334Z,74.43
2023-03-11T08:37:28.088Z,75.25
2023-03-11T08:39:29.606Z,74.61
2023-03-11T08:41:30.707Z,74.95
2023-03-11T08:43:32.067Z,75.68
2023-03-11T08:45:33.138Z,74.72
2023-03-11T08:47:34.653Z,74.42
2023-03-11T08:49:35.872Z,75.3
2023-03-11T08:51:36.910Z,74.58
2023-03-11T08:55:39.703Z,73.19
2023-03-11T08:57:41.525Z,72.73
2023-03-11T08:59:43.051Z,74.16
2023-03-11T09:01:44.246Z,72.59
2023-03-11T09:05:46.966Z,72.16
2023-03-11T09:07:48.689Z,70.78
2023-03-11T09:09:50.378Z,70.18
2023-03-11T09:11:51.516Z,70.71
2023-03-11T09:13:53.276Z,69.66
2023-03-11T09:15:54.507Z,69.94
2023-03-11T09:17:55.332Z,69.59
2023-03-11T09:19:57.850Z,71.36
2023-03-11T09:21:59.476Z,68.04
2023-03-11T09:24:01.294Z,67.72
2023-03-11T09:26:02.555Z,67.75
2023-03-11T09:28:04.817Z,68.55
2023-03-11T09:30:06.426Z,68.72
2023-03-11T09:32:07.741Z,68.53
2023-03-11T09:34:09.386Z,69.01
2023-03-11T09:36:10.420Z,69.67
2023-03-11T09:38:12.243Z,68.73
2023-03-11T09:40:13.899Z,69.58
2023-03-11T09:42:15.737Z,69.31
2023-03-11T09:44:17.550Z,71.15
2023-03-11T09:48:22.645Z,72.25
2023-03-11T09:50:29.838Z,73.79
2023-03-11T09:52:23.227Z,71.97
2023-03-11T09:54:24.623Z,73.34
2023-03-11T09:56:26.434Z,72.35
2023-03-11T09:58:28.208Z,72.01
2023-03-11T10:00:29.622Z,71.29
2023-03-11T10:02:31.555Z,73.24
2023-03-11T10:04:32.546Z,74.16
2023-03-11T10:06:33.738Z,73.74
2023-03-11T10:08:34.686Z,74.15
2023-03-11T10:10:36.137Z,74.56
2023-03-11T10:12:37.970Z,74.72
2023-03-11T10:13:21.819Z,74.26
2023-03-11T10:15:23.736Z,75.19
2023-03-11T10:17:25.320Z,78.27
2023-03-11T10:19:26.712Z,79.42
2023-03-11T10:21:28.596Z,78.36
2023-03-11T10:25:31.527Z,75.87
2023-03-11T10:27:32.722Z,75.93
2023-03-11T10:29:33.824Z,72.95
2023-03-11T10:31:35.052Z,72.79
2023-03-11T10:33:36.403Z,70.9
2023-03-11T10:35:38.316Z,70.24
2023-03-11T10:37:49.092Z,70.12
2023-03-11T10:39:40.889Z,72.13
2023-03-11T10:41:42.147Z,68.24
2023-03-11T10:43:43.311Z,65.44
2023-03-11T10:45:44.830Z,63.22
2023-03-11T10:47:46.469Z,62.8
2023-03-11T10:49:47.476Z,65.29
2023-03-11T10:51:48.734Z,62.55
2023-03-11T10:53:50.363Z,61.4
2023-03-11T10:57:52.207Z,62.53
2023-03-11T10:59:53.103Z,63.3
2023-03-11T11:01:54.645Z,61.56
2023-03-11T11:03:55.638Z,62.84
2023-03-11T11:05:56.687Z,63.69
2023-03-11T11:07:58.044Z,64.84
2023-03-11T11:09:59.064Z,67.21
2023-03-11T11:14:02.647Z,68.3
2023-03-11T11:16:04.081Z,67.67
2023-03-11T11:18:05.517Z,66.83
2023-03-11T11:20:07.247Z,67.58
2023-03-11T11:24:10.273Z,67.26
2023-03-11T11:26:11.568Z,68.94
2023-03-11T11:28:12.971Z,67.74
2023-03-11T11:30:14.713Z,69.04
2023-03-11T11:32:16.664Z,68.37
2023-03-11T11:34:18.502Z,68.62
2023-03-11T11:36:19.619Z,67.76
2023-03-11T11:38:20.572Z,70.41
2023-03-11T11:40:21.600Z,68.15
2023-03-11T11:42:22.575Z,68.69
2023-03-11T11:44:23.572Z,67.34
2023-03-11T11:46:24.671Z,67.28
2023-03-11T11:48:26.420Z,68.56
2023-03-11T11:50:27.564Z,66.87
2023-03-11T11:52:28.525Z,67.39
2023-03-11T11:54:29.702Z,68.34
2023-03-11T11:56:31.398Z,66.74
2023-03-11T11:58:32.591Z,67.12
2023-03-11T12:00:34.373Z,67.19
2023-03-11T12:02:35.756Z,67.21
2023-03-11T12:06:39.353Z,67.98
2023-03-11T12:08:40.415Z,66.44
2023-03-11T12:10:41.894Z,66.93
2023-03-11T12:12:43.354Z,66.72
2023-03-11T12:14:44.452Z,67.35
2023-03-11T12:16:45.888Z,68.19
2023-03-11T12:18:46.861Z,65.69
2023-03-11T12:20:47.929Z,66.15
2023-03-11T12:22:49.698Z,65.34
2023-03-11T12:24:50.767Z,64.66
2023-03-11T12:26:52.005Z,63.83
2023-03-11T12:28:53.490Z,65.03
2023-03-11T12:30:55.361Z,64.86
2023-03-11T12:32:56.381Z,65.17
2023-03-11T12:34:57.909Z,66.23
2023-03-11T12:39:01.330Z,65.92
2023-03-11T12:41:03.412Z,65.28
2023-03-11T12:43:04.899Z,65.74
2023-03-11T12:45:06.507Z,65.65
2023-03-11T12:49:08.980Z,65.76
2023-03-11T12:51:10.565Z,66.91
2023-03-11T12:53:13.596Z,66.19
2023-03-11T12:55:13.570Z,66.48
2023-03-11T12:57:14.854Z,65.96
2023-03-11T12:59:16.377Z,65.23
2023-03-11T13:01:17.976Z,64.38
2023-03-11T13:03:19.703Z,64.37
2023-03-11T13:05:21.287Z,65.07
2023-03-11T13:07:23.117Z,64.33
2023-03-11T13:09:24.996Z,65.02
2023-03-11T13:11:26.263Z,65.33
2023-03-11T13:13:27.510Z,63.15
2023-03-11T13:15:29.344Z,63.22
2023-03-11T13:17:30.707Z,64.49
2023-03-11T13:19:32.322Z,63.71
2023-03-11T13:21:34.206Z,61.23
2023-03-11T13:23:35.494Z,61.58
2023-03-11T13:25:37.294Z,61.21
2023-03-11T13:27:38.337Z,62.27
2023-03-11T13:29:39.345Z,61.55
2023-03-11T13:31:40.491Z,61.8
2023-03-11T13:33:41.665Z,60.92
2023-03-11T13:37:44.092Z,60.71
2023-03-11T13:39:45.345Z,61.7
2023-03-11T13:41:46.443Z,61.41
2023-03-11T13:43:47.707Z,62.56
2023-03-11T13:47:51.006Z,64.56
2023-03-11T13:49:52.520Z,65.17
2023-03-11T13:51:53.997Z,66.05
2023-03-11T13:53:55.055Z,64.28
2023-03-11T13:55:56.826Z,66.04
2023-03-11T13:57:58.511Z,65.76
2023-03-11T13:59:59.637Z,64.43
2023-03-11T14:02:00.742Z,65.03
2023-03-11T14:04:02.564Z,65.67
2023-03-11T14:06:03.781Z,65.79
2023-03-11T14:08:04.882Z,67.06
2023-03-11T14:10:06.767Z,64.88
2023-03-11T14:12:08.324Z,64.95
2023-03-11T14:14:09.387Z,66.27
2023-03-11T14:16:11.037Z,67.02
2023-03-11T14:18:12.548Z,66.13
2023-03-11T14:20:14.063Z,66.58
2023-03-11T14:22:15.476Z,67.15
2023-03-11T14:24:16.739Z,65.24
2023-03-11T14:26:18.482Z,63.77
2023-03-11T14:30:22.070Z,64.49
2023-03-11T14:32:23.175Z,64.17
2023-03-11T14:34:24.745Z,65.71
2023-03-11T14:36:26.038Z,62.98
2023-03-11T14:38:27.195Z,62.85
2023-03-11T14:40:28.324Z,64.17
2023-03-11T14:42:29.503Z,62.96
2023-03-11T14:44:31.116Z,62.19
2023-03-11T14:46:32.330Z,61.25
2023-03-11T14:48:34.023Z,62.55
2023-03-11T14:50:35.261Z,61.98
2023-03-11T14:52:36.580Z,61.34
2023-03-11T14:54:38.152Z,60.72
2023-03-11T14:56:39.553Z,61.43
2023-03-11T14:58:41.251Z,61.42
2023-03-11T15:00:42.998Z,60.68
2023-03-11T15:02:44.867Z,59.64
2023-03-11T15:04:46.338Z,61.46
2023-03-11T15:06:48.097Z,61.57
2023-03-11T15:08:49.714Z,60.12
2023-03-11T15:12:52.762Z,62.1
2023-03-11T15:14:54.648Z,59.53
2023-03-11T15:16:55.973Z,61.94
2023-03-11T15:18:57.502Z,61.07
2023-03-11T15:20:58.481Z,60.12
2023-03-11T15:23:00.405Z,59.51
2023-03-11T15:25:01.961Z,60.14
2023-03-11T15:27:03.220Z,59.75
2023-03-11T15:29:06.917Z,61.9
2023-03-11T15:31:06.041Z,59.55
2023-03-11T15:33:06.989Z,58.88
2023-03-11T15:35:08.854Z,59.33
2023-03-11T15:37:10.589Z,59.53
2023-03-11T15:39:11.668Z,60.08
2023-03-11T15:41:12.988Z,59.6
2023-03-11T15:45:16.328Z,57.42
2023-03-11T15:47:17.633Z,57.77
2023-03-11T15:49:19.410Z,58.1
2023-03-11T15:51:21.242Z,57.8
2023-03-11T15:55:25.141Z,56.37
2023-03-11T15:57:26.396Z,58.74
2023-03-11T15:59:28.416Z,55.79
2023-03-11T16:01:29.574Z,55.65
2023-03-11T16:03:31.599Z,54.99
2023-03-11T16:05:32.591Z,55.22
2023-03-11T16:07:39.702Z,56.09
2023-03-11T16:09:35.691Z,57.19
2023-03-11T16:11:36.984Z,57.53
2023-03-11T16:13:38.544Z,58.32
2023-03-11T16:15:39.648Z,58.67
2023-03-11T16:17:49.221Z,60.93
2023-03-11T16:19:42.579Z,59.61
2023-03-11T16:21:44.579Z,60.58
2023-03-11T16:23:51.780Z,60.93
2023-03-11T16:27:49.415Z,60.43
2023-03-11T16:29:50.730Z,61.32
2023-03-11T16:31:52.024Z,61.89
2023-03-11T16:33:53.120Z,63.7
2023-03-11T16:37:56.260Z,60.95
2023-03-11T16:39:58.164Z,60.71
2023-03-11T16:41:59.705Z,59.7
2023-03-11T16:44:01.215Z,59.36
2023-03-11T16:46:02.957Z,59.54
2023-03-11T16:48:03.979Z,60.23
2023-03-11T16:50:05.173Z,60.98
2023-03-11T16:52:07.179Z,61.91
2023-03-11T16:54:08.091Z,61.13
2023-03-11T16:56:09.846Z,62.39
2023-03-11T16:58:10.821Z,62.5
2023-03-11T16:58:54.739Z,61.45
2023-03-11T17:00:56.007Z,62.14
2023-03-11T17:02:57.243Z,63.11
2023-03-11T17:04:58.850Z,62.05
2023-03-11T17:06:59.867Z,64.3
2023-03-11T17:09:01.117Z,62.52
2023-03-11T17:11:02.897Z,63.75
2023-03-11T17:13:04.102Z,62.27
2023-03-11T17:15:05.742Z,62.21
2023-03-11T17:17:07.715Z,62.55
2023-03-11T17:21:10.657Z,64.7
2023-03-11T17:23:12.410Z,63.24
2023-03-11T17:25:13.624Z,64.16
2023-03-11T17:27:15.288Z,64.06
2023-03-11T17:31:18.360Z,65.09
2023-03-11T17:33:19.911Z,65.35
2023-03-11T17:35:21.370Z,65.63
2023-03-11T17:37:23.371Z,66.61
2023-03-11T17:39:25.280Z,68.13
2023-03-11T17:41:26.730Z,67.73
2023-03-11T17:43:27.872Z,68.33
2023-03-11T17:45:29.375Z,68.72
2023-03-11T17:47:31.106Z,67.86
2023-03-11T17:49:32.813Z,67.78
2023-03-11T17:51:34.274Z,70.25
2023-03-11T17:53:36.291Z,70.32
2023-03-11T17:55:37.561Z,73
2023-03-11T17:57:45.337Z,73.96
2023-03-11T17:59:40.550Z,72.42
2023-03-11T18:03:43.092Z,72.68
2023-03-11T18:05:44.389Z,73.52
2023-03-11T18:07:46.142Z,72.75
2023-03-11T18:09:47.213Z,73.03
2023-03-11T18:13:51.066Z,74.45
2023-03-11T18:15:52.239Z,74.76
2023-03-11T18:17:53.744Z,74.78
2023-03-11T18:19:54.810Z,74.19
2023-03-11T18:21:56.128Z,73.88
2023-03-11T18:23:57.794Z,74.5
2023-03-11T18:25:59.031Z,74.23
2023-03-11T18:28:00.262Z,74.37
2023-03-11T18:30:01.710Z,73.69
2023-03-11T18:32:03.120Z,74.33
2023-03-11T18:34:05.078Z,74.43
2023-03-11T18:36:06.955Z,75.07
2023-03-11T18:38:08.180Z,74.73
2023-03-11T18:40:09.364Z,75.54
2023-03-11T18:42:11.380Z,76
2023-03-11T18:44:13.128Z,75.95
2023-03-11T18:46:14.736Z,76.31
2023-03-11T18:48:16.646Z,78.2
2023-03-11T18:50:17.923Z,77.08
2023-03-11T18:52:19.707Z,77.12
2023-03-11T18:56:22.738Z,75.57
2023-03-11T18:58:24.161Z,76.61
2023-03-11T19:00:25.791Z,77.06
2023-03-11T19:02:27.331Z,77.87
2023-03-11T19:04:28.902Z,78.57
2023-03-11T19:06:30.806Z,79.83
2023-03-11T19:08:32.519Z,79.76
2023-03-11T19:10:34.063Z,79.73
2023-03-11T19:12:35.124Z,79.76
2023-03-11T19:14:36.420Z,80.31
2023-03-11T19:16:38.382Z,80.95
2023-03-11T19:18:39.886Z,80.76
2023-03-11T19:20:41.947Z,80.61
2023-03-11T19:22:43.783Z,81.23
2023-03-11T19:24:45.236Z,81.67
2023-03-11T19:26:46.655Z,82.57
2023-03-11T19:28:48.191Z,83.08
2023-03-11T19:30:49.660Z,83.53
2023-03-11T19:32:51.483Z,83.98
2023-03-11T19:34:53.306Z,84.19
2023-03-11T19:37:02.471Z,84.93
2023-03-11T19:38:55.971Z,85.03
2023-03-11T19:40:57.409Z,85.26
2023-03-11T19:42:59.218Z,84.24
2023-03-11T19:45:00.608Z,83.71
2023-03-11T19:47:02.393Z,84.13
2023-03-11T19:49:04.296Z,84.68
2023-03-11T19:51:05.789Z,84.64
2023-03-11T19:53:07.756Z,84.67
2023-03-11T19:55:08.993Z,84.26
2023-03-11T19:57:10.833Z,84.56
2023-03-11T19:59:12.605Z,84.7
2023-03-11T20:01:14.150Z,84.42
2023-03-11T20:03:15.607Z,83.95
2023-03-11T20:05:17.268Z,84.22
2023-03-11T20:07:19.370Z,83.83
2023-03-11T20:09:21.368Z,83.71
2023-03-11T20:11:23.399Z,83.68
2023-03-11T20:13:24.808Z,84.08
2023-03-11T20:15:26.704Z,84.11
2023-03-11T20:17:28.030Z,84.17
2023-03-11T20:21:30.904Z,85.94
2023-03-11T20:23:32.275Z,86.64
2023-03-11T20:25:33.867Z,87.1
2023-03-11T20:27:35.149Z,87.18
2023-03-11T20:31:38.608Z,86.54
2023-03-11T20:33:39.984Z,87.36
2023-03-11T20:35:41.916Z,87.53
2023-03-11T20:37:42.985Z,87.51
2023-03-11T20:39:44.515Z,87.75
2023-03-11T20:41:46.426Z,88.16
2023-03-11T20:43:48.014Z,88.79
2023-03-11T20:45:50.092Z,88.82
2023-03-11T20:47:51.405Z,88.58
2023-03-11T20:49:52.733Z,88.25
2023-03-11T20:53:55.447Z,88.32
2023-03-11T20:55:57.208Z,88.79
2023-03-11T20:57:58.794Z,88.9
2023-03-11T21:00:00.757Z,88.45
2023-03-11T21:02:02.692Z,88.3
2023-03-11T21:04:04.031Z,88.04
2023-03-11T21:06:05.430Z,87.91
2023-03-11T21:08:06.911Z,88.08
2023-03-11T21:10:08.257Z,88.38
2023-03-11T21:12:10.162Z,89.01
2023-03-11T21:14:11.261Z,89.48
2023-03-11T21:16:12.766Z,89.47
2023-03-11T21:18:14.446Z,89.74
2023-03-11T21:20:16.063Z,89.99
2023-03-11T21:22:17.886Z,89.93
2023-03-11T21:24:19.482Z,90.02
2023-03-11T21:26:20.685Z,90.61
2023-03-11T21:28:21.743Z,90.95
2023-03-11T21:30:23.513Z,90.76
2023-03-11T21:32:25.697Z,90.35
2023-03-11T21:36:28.838Z,89.8
2023-03-11T21:38:30.939Z,89.43
2023-03-11T21:40:32.040Z,89.54
2023-03-11T21:42:33.410Z,90.22
2023-03-11T21:44:35.433Z,90.24
2023-03-11T21:46:36.961Z,90.31
2023-03-11T21:48:38.354Z,90.54
2023-03-11T21:50:39.833Z,90.59
2023-03-11T21:52:41.858Z,90.48
2023-03-11T21:54:43.164Z,90.33
2023-03-11T21:56:44.812Z,90.12
2023-03-11T21:58:46.362Z,89.91
2023-03-11T22:00:48.284Z,89.64
2023-03-11T22:02:49.529Z,89.52
2023-03-11T22:04:51.088Z,89.44
2023-03-11T22:06:54.533Z,89.43
2023-03-11T22:08:54.688Z,89.64
2023-03-11T22:10:56.071Z,90.67
2023-03-11T22:12:57.275Z,90.72
2023-03-11T22:14:58.639Z,90.87
2023-03-11T22:19:02.175Z,92.21
2023-03-11T22:21:04.187Z,91.81
2023-03-11T22:23:06.112Z,91.7
2023-03-11T22:25:07.790Z,91.72
2023-03-11T22:27:09.171Z,91.92
2023-03-11T22:29:12.300Z,92.57
2023-03-11T22:31:11.492Z,92.43
2023-03-11T22:33:12.722Z,92.69
2023-03-11T22:35:14.489Z,92.8
2023-03-11T22:37:16.022Z,92.67
2023-03-11T22:39:17.705Z,92.53
2023-03-11T22:41:19.026Z,92.42
2023-03-11T22:43:20.558Z,92.81
2023-03-11T22:45:21.696Z,92.73
2023-03-11T22:47:22.898Z,92.8
2023-03-11T22:51:25.424Z,92.88
2023-03-11T22:53:27.226Z,92.65
2023-03-11T22:55:28.794Z,92.46
2023-03-11T22:57:30.333Z,92.2
2023-03-11T23:01:33.530Z,91.94
2023-03-11T23:03:35.334Z,91.87
2023-03-11T23:05:37.161Z,91.77
2023-03-11T23:07:38.533Z,91.59
2023-03-11T23:09:40.034Z,91.31
2023-03-11T23:11:41.767Z,91.7
2023-03-11T23:13:43.815Z,92.43
2023-03-11T23:15:45.797Z,92.89
2023-03-11T23:17:47.180Z,92.94
2023-03-11T23:19:48.721Z,93.09
2023-03-11T23:21:50.470Z,92.78
2023-03-11T23:23:52.374Z,92.53
2023-03-11T23:25:54.193Z,92.41
2023-03-11T23:27:56.130Z,92.39
2023-03-11T23:29:57.381Z,92.57
2023-03-11T23:34:00.873Z,92.18
2023-03-11T23:36:02.161Z,92.39
2023-03-11T23:38:03.508Z,92.43
2023-03-11T23:40:04.980Z,92.92
2023-03-11T23:44:07.824Z,93.47
2023-03-11T23:44:51.802Z,93.48
2023-03-11T23:46:53.016Z,93.59
2023-03-11T23:48:54.797Z,93.52
2023-03-11T23:50:56.464Z,93.79
2023-03-11T23:52:58.176Z,94.37
2023-03-11T23:54:59.387Z,94.17
2023-03-11T23:57:00.991Z,93.86
2023-03-11T23:59:02.310Z,93.7
